sensor_id;sensor_type;location;lat;lon;timestamp;pressure;altitude;pressure_sealevel;temperature;humidity
62072;BME280;48031;48.542;13.232;2023-02-19T00:03:01;97698.75;;;13.00;75.67
62072;BME280;48031;48.542;13.232;2023-02-19T00:07:04;97699.59;;;12.74;76.21
62072;BME280;48031;48.542;13.232;2023-02-19T00:11:08;97691.75;;;13.09;75.99
62072;BME280;48031;48.542;13.232;2023-02-19T00:15:12;97694.66;;;12.71;76.16
62072;BME280;48031;48.542;13.232;2023-02-19T00:19:17;97688.38;;;12.97;76.46
62072;BME280;48031;48.542;13.232;2023-02-19T00:23:19;97684.88;;;12.70;80.68
62072;BME280;48031;48.542;13.232;2023-02-19T00:27:21;97681.50;;;12.89;76.33
62072;BME280;48031;48.542;13.232;2023-02-19T00:31:26;97685.81;;;12.54;77.12
62072;BME280;48031;48.542;13.232;2023-02-19T00:35:35;97669.88;;;13.04;77.66
62072;BME280;48031;48.542;13.232;2023-02-19T00:39:38;97673.94;;;12.65;77.78
62072;BME280;48031;48.542;13.232;2023-02-19T00:43:40;97664.66;;;12.66;76.99
62072;BME280;48031;48.542;13.232;2023-02-19T00:47:42;97664.78;;;12.49;78.37
62072;BME280;48031;48.542;13.232;2023-02-19T00:51:45;97652.28;;;12.80;77.80
62072;BME280;48031;48.542;13.232;2023-02-19T00:55:47;97646.50;;;12.76;77.37
62072;BME280;48031;48.542;13.232;2023-02-19T00:59:49;97660.16;;;12.49;77.72
62072;BME280;48031;48.542;13.232;2023-02-19T01:03:51;97647.50;;;12.65;77.50
62072;BME280;48031;48.542;13.232;2023-02-19T01:07:52;97650.78;;;12.67;77.67
62072;BME280;48031;48.542;13.232;2023-02-19T01:11:54;97640.72;;;12.68;77.55
62072;BME280;48031;48.542;13.232;2023-02-19T01:20:10;97635.19;;;12.58;77.51
62072;BME280;48031;48.542;13.232;2023-02-19T01:24:11;97632.31;;;12.69;77.34
62072;BME280;48031;48.542;13.232;2023-02-19T01:28:13;97635.31;;;12.41;77.22
62072;BME280;48031;48.542;13.232;2023-02-19T01:32:15;97632.38;;;12.79;76.13
62072;BME280;48031;48.542;13.232;2023-02-19T01:36:17;97628.69;;;12.59;76.22
62072;BME280;48031;48.542;13.232;2023-02-19T01:40:19;97616.28;;;12.78;76.04
62072;BME280;48031;48.542;13.232;2023-02-19T01:48:30;97600.16;;;13.08;75.28
62072;BME280;48031;48.542;13.232;2023-02-19T01:52:34;97595.28;;;12.73;76.24
62072;BME280;48031;48.542;13.232;2023-02-19T01:56:40;97589.50;;;13.02;76.06
62072;BME280;48031;48.542;13.232;2023-02-19T02:00:43;97579.84;;;12.47;76.01
62072;BME280;48031;48.542;13.232;2023-02-19T02:04:45;97574.91;;;12.44;75.99
62072;BME280;48031;48.542;13.232;2023-02-19T02:08:54;97562.53;;;13.05;75.33
62072;BME280;48031;48.542;13.232;2023-02-19T02:13:15;97551.72;;;12.36;74.95
62072;BME280;48031;48.542;13.232;2023-02-19T02:21:32;97555.44;;;12.62;75.42
62072;BME280;48031;48.542;13.232;2023-02-19T02:34:09;97540.97;;;12.57;76.11
62072;BME280;48031;48.542;13.232;2023-02-19T02:38:14;97541.13;;;12.40;75.61
62072;BME280;48031;48.542;13.232;2023-02-19T02:42:17;97538.78;;;12.54;75.00
62072;BME280;48031;48.542;13.232;2023-02-19T02:46:41;97539.53;;;12.49;75.88
62072;BME280;48031;48.542;13.232;2023-02-19T02:50:52;97528.28;;;12.35;77.00
62072;BME280;48031;48.542;13.232;2023-02-19T02:54:55;97511.00;;;11.88;79.04
62072;BME280;48031;48.542;13.232;2023-02-19T02:59:07;97513.06;;;12.02;80.23
62072;BME280;48031;48.542;13.232;2023-02-19T03:03:12;97507.13;;;12.11;79.63
62072;BME280;48031;48.542;13.232;2023-02-19T03:07:17;97501.16;;;11.60;79.89
62072;BME280;48031;48.542;13.232;2023-02-19T03:11:19;97497.69;;;11.64;80.08
62072;BME280;48031;48.542;13.232;2023-02-19T03:15:44;97497.84;;;11.75;80.63
62072;BME280;48031;48.542;13.232;2023-02-19T03:20:10;97492.41;;;11.75;85.30
62072;BME280;48031;48.542;13.232;2023-02-19T03:24:19;97496.31;;;11.89;81.91
62072;BME280;48031;48.542;13.232;2023-02-19T03:28:42;97482.75;;;11.67;80.97
62072;BME280;48031;48.542;13.232;2023-02-19T03:33:12;97497.38;;;11.88;80.68
62072;BME280;48031;48.542;13.232;2023-02-19T03:37:19;97479.69;;;11.58;80.52
62072;BME280;48031;48.542;13.232;2023-02-19T03:41:42;97487.16;;;11.46;81.46
62072;BME280;48031;48.542;13.232;2023-02-19T03:54:22;97438.66;;;11.87;80.47
62072;BME280;48031;48.542;13.232;2023-02-19T03:58:32;97448.28;;;11.19;79.77
62072;BME280;48031;48.542;13.232;2023-02-19T04:06:49;97451.31;;;11.49;79.75
62072;BME280;48031;48.542;13.232;2023-02-19T04:10:54;97460.53;;;11.48;81.30
62072;BME280;48031;48.542;13.232;2023-02-19T04:15:02;97463.56;;;11.74;81.14
62072;BME280;48031;48.542;13.232;2023-02-19T04:19:10;97442.66;;;11.52;79.07
62072;BME280;48031;48.542;13.232;2023-02-19T04:23:16;97441.19;;;11.72;79.62
62072;BME280;48031;48.542;13.232;2023-02-19T04:27:20;97463.88;;;11.55;78.44
62072;BME280;48031;48.542;13.232;2023-02-19T04:31:22;97453.91;;;11.66;78.35
62072;BME280;48031;48.542;13.232;2023-02-19T04:35:25;97445.50;;;11.67;78.22
62072;BME280;48031;48.542;13.232;2023-02-19T04:39:27;97450.56;;;11.81;76.95
62072;BME280;48031;48.542;13.232;2023-02-19T04:43:29;97451.97;;;11.61;78.04
62072;BME280;48031;48.542;13.232;2023-02-19T04:47:31;97458.78;;;11.59;77.58
62072;BME280;48031;48.542;13.232;2023-02-19T04:51:33;97451.88;;;11.51;77.06
62072;BME280;48031;48.542;13.232;2023-02-19T04:55:37;97451.59;;;11.75;76.92
62072;BME280;48031;48.542;13.232;2023-02-19T04:59:39;97447.56;;;11.29;77.14
62072;BME280;48031;48.542;13.232;2023-02-19T05:03:42;97444.41;;;11.37;78.05
62072;BME280;48031;48.542;13.232;2023-02-19T05:07:44;97446.75;;;11.28;77.21
62072;BME280;48031;48.542;13.232;2023-02-19T05:11:46;97456.59;;;11.34;77.08
62072;BME280;48031;48.542;13.232;2023-02-19T05:15:59;97459.34;;;11.66;75.68
62072;BME280;48031;48.542;13.232;2023-02-19T05:20:01;97465.19;;;11.26;76.73
62072;BME280;48031;48.542;13.232;2023-02-19T05:24:03;97463.53;;;11.20;75.77
62072;BME280;48031;48.542;13.232;2023-02-19T05:28:05;97466.78;;;11.22;75.81
62072;BME280;48031;48.542;13.232;2023-02-19T05:32:19;97462.84;;;11.35;75.52
62072;BME280;48031;48.542;13.232;2023-02-19T05:36:22;97462.91;;;11.40;75.37
62072;BME280;48031;48.542;13.232;2023-02-19T05:40:25;97470.75;;;11.36;74.94
62072;BME280;48031;48.542;13.232;2023-02-19T05:44:27;97474.63;;;10.75;83.98
62072;BME280;48031;48.542;13.232;2023-02-19T05:48:29;97478.31;;;11.83;78.60
62072;BME280;48031;48.542;13.232;2023-02-19T05:52:31;97476.97;;;14.70;67.97
62072;BME280;48031;48.542;13.232;2023-02-19T05:56:41;97489.81;;;14.49;68.05
62072;BME280;48031;48.542;13.232;2023-02-19T06:00:42;97481.75;;;16.79;66.87
62072;BME280;48031;48.542;13.232;2023-02-19T06:04:45;97489.19;;;16.06;70.65
62072;BME280;48031;48.542;13.232;2023-02-19T06:08:48;97510.06;;;16.36;68.79
62072;BME280;48031;48.542;13.232;2023-02-19T06:12:52;97510.88;;;15.48;81.88
62072;BME280;48031;48.542;13.232;2023-02-19T06:16:54;97507.78;;;16.14;74.21
62072;BME280;48031;48.542;13.232;2023-02-19T06:21:04;97506.91;;;16.18;73.77
62072;BME280;48031;48.542;13.232;2023-02-19T06:25:06;97507.09;;;15.93;73.31
62072;BME280;48031;48.542;13.232;2023-02-19T06:29:12;97509.69;;;16.13;73.35
62072;BME280;48031;48.542;13.232;2023-02-19T06:33:14;97522.09;;;16.01;72.25
62072;BME280;48031;48.542;13.232;2023-02-19T06:37:16;97514.31;;;16.52;71.75
62072;BME280;48031;48.542;13.232;2023-02-19T06:41:18;97523.13;;;16.78;75.19
62072;BME280;48031;48.542;13.232;2023-02-19T06:45:20;97534.53;;;16.61;73.94
62072;BME280;48031;48.542;13.232;2023-02-19T06:49:21;97543.25;;;16.29;75.25
62072;BME280;48031;48.542;13.232;2023-02-19T06:53:23;97550.28;;;16.79;75.25
62072;BME280;48031;48.542;13.232;2023-02-19T06:57:25;97563.06;;;16.60;73.75
62072;BME280;48031;48.542;13.232;2023-02-19T07:01:29;97565.00;;;16.15;84.49
62072;BME280;48031;48.542;13.232;2023-02-19T07:05:31;97567.56;;;15.22;85.57
62072;BME280;48031;48.542;13.232;2023-02-19T07:09:33;97574.50;;;14.79;83.88
62072;BME280;48031;48.542;13.232;2023-02-19T07:13:34;97574.44;;;14.24;86.51
62072;BME280;48031;48.542;13.232;2023-02-19T07:17:36;97587.56;;;14.32;88.19
62072;BME280;48031;48.542;13.232;2023-02-19T07:21:38;97730.94;;;14.34;100.00
62072;BME280;48031;48.542;13.232;2023-02-19T07:25:40;97271.69;;;14.37;100.00
62072;BME280;48031;48.542;13.232;2023-02-19T07:29:41;97579.41;;;14.52;100.00
62072;BME280;48031;48.542;13.232;2023-02-19T07:33:44;97599.09;;;14.69;98.62
62072;BME280;48031;48.542;13.232;2023-02-19T07:37:46;97615.47;;;14.74;100.00
62072;BME280;48031;48.542;13.232;2023-02-19T07:41:48;97672.75;;;14.34;100.00
62072;BME280;48031;48.542;13.232;2023-02-19T07:46:07;97628.31;;;15.09;100.00
62072;BME280;48031;48.542;13.232;2023-02-19T07:50:10;97617.66;;;14.77;100.00
62072;BME280;48031;48.542;13.232;2023-02-19T07:54:14;97633.78;;;15.14;96.93
62072;BME280;48031;48.542;13.232;2023-02-19T07:58:16;97626.31;;;15.65;99.44
62072;BME280;48031;48.542;13.232;2023-02-19T08:02:19;97633.94;;;16.33;95.64
62072;BME280;48031;48.542;13.232;2023-02-19T08:06:40;97628.22;;;16.68;93.38
62072;BME280;48031;48.542;13.232;2023-02-19T08:10:42;97641.88;;;16.29;92.12
62072;BME280;48031;48.542;13.232;2023-02-19T08:15:03;97623.56;;;18.64;83.43
62072;BME280;48031;48.542;13.232;2023-02-19T08:19:05;97644.78;;;20.43;80.55
62072;BME280;48031;48.542;13.232;2023-02-19T08:23:07;97647.84;;;20.27;73.25
62072;BME280;48031;48.542;13.232;2023-02-19T08:27:09;97657.00;;;21.22;73.91
62072;BME280;48031;48.542;13.232;2023-02-19T08:31:11;97651.88;;;21.69;69.81
62072;BME280;48031;48.542;13.232;2023-02-19T08:35:13;97665.56;;;21.74;70.18
62072;BME280;48031;48.542;13.232;2023-02-19T08:39:15;97657.63;;;21.81;71.90
62072;BME280;48031;48.542;13.232;2023-02-19T08:43:19;97673.47;;;21.89;70.50
62072;BME280;48031;48.542;13.232;2023-02-19T08:47:21;97672.72;;;21.44;65.91
62072;BME280;48031;48.542;13.232;2023-02-19T08:51:23;97690.78;;;22.60;65.55
62072;BME280;48031;48.542;13.232;2023-02-19T08:55:25;97674.50;;;24.08;76.43
62072;BME280;48031;48.542;13.232;2023-02-19T08:59:28;97698.34;;;24.18;62.67
62072;BME280;48031;48.542;13.232;2023-02-19T09:03:29;97684.84;;;23.01;60.86
62072;BME280;48031;48.542;13.232;2023-02-19T09:07:31;97679.81;;;23.92;68.14
62072;BME280;48031;48.542;13.232;2023-02-19T09:11:33;97696.84;;;21.91;62.38
62072;BME280;48031;48.542;13.232;2023-02-19T09:15:37;97667.16;;;24.50;66.69
62072;BME280;48031;48.542;13.232;2023-02-19T09:19:39;97698.06;;;22.47;59.16
62072;BME280;48031;48.542;13.232;2023-02-19T09:23:40;97696.19;;;24.15;62.46
62072;BME280;48031;48.542;13.232;2023-02-19T09:27:42;97725.94;;;21.36;59.41
62072;BME280;48031;48.542;13.232;2023-02-19T09:31:45;61634.44;;;-142.07;100.00
62072;BME280;48031;48.542;13.232;2023-02-19T09:35:47;97679.63;;;24.65;59.16
62072;BME280;48031;48.542;13.232;2023-02-19T09:39:49;97696.19;;;24.53;51.47
62072;BME280;48031;48.542;13.232;2023-02-19T09:43:50;97698.69;;;25.58;55.80
62072;BME280;48031;48.542;13.232;2023-02-19T09:47:54;97718.91;;;26.36;45.20
62072;BME280;48031;48.542;13.232;2023-02-19T09:52:00;97716.13;;;16.82;55.62
62072;BME280;48031;48.542;13.232;2023-02-19T09:56:04;97728.09;;;15.07;58.68
62072;BME280;48031;48.542;13.232;2023-02-19T10:04:12;97716.88;;;15.59;56.73
62072;BME280;48031;48.542;13.232;2023-02-19T10:08:19;97710.25;;;15.80;56.24
62072;BME280;48031;48.542;13.232;2023-02-19T10:12:23;97710.44;;;17.41;52.64
62072;BME280;48031;48.542;13.232;2023-02-19T10:16:26;97711.16;;;16.35;53.58
62072;BME280;48031;48.542;13.232;2023-02-19T10:20:28;97729.53;;;16.88;53.06
62072;BME280;48031;48.542;13.232;2023-02-19T10:24:30;97728.00;;;17.74;50.22
62072;BME280;48031;48.542;13.232;2023-02-19T10:28:33;97737.34;;;17.73;49.64
62072;BME280;48031;48.542;13.232;2023-02-19T10:32:35;97752.66;;;17.11;49.82
62072;BME280;48031;48.542;13.232;2023-02-19T10:36:40;97745.06;;;17.37;50.32
62072;BME280;48031;48.542;13.232;2023-02-19T10:40:45;97796.19;;;15.23;57.22
62072;BME280;48031;48.542;13.232;2023-02-19T10:44:54;97763.63;;;15.17;62.68
62072;BME280;48031;48.542;13.232;2023-02-19T10:49:02;61634.44;;;-142.07;100.00
62072;BME280;48031;48.542;13.232;2023-02-19T10:53:05;61634.44;;;-142.07;100.00
62072;BME280;48031;48.542;13.232;2023-02-19T11:01:30;61634.44;;;-142.07;100.00
62072;BME280;48031;48.542;13.232;2023-02-19T11:05:32;61634.44;;;-142.07;100.00
62072;BME280;48031;48.542;13.232;2023-02-19T11:09:44;61634.44;;;-142.07;100.00
62072;BME280;48031;48.542;13.232;2023-02-19T11:13:46;61634.44;;;-142.07;100.00
62072;BME280;48031;48.542;13.232;2023-02-19T11:18:25;61634.44;;;-142.07;100.00
62072;BME280;48031;48.542;13.232;2023-02-19T11:22:33;61634.44;;;-142.07;100.00
62072;BME280;48031;48.542;13.232;2023-02-19T11:26:35;61634.44;;;-142.07;100.00
62072;BME280;48031;48.542;13.232;2023-02-19T11:30:43;61634.44;;;-142.07;100.00
62072;BME280;48031;48.542;13.232;2023-02-19T11:34:46;61634.44;;;-142.07;100.00
62072;BME280;48031;48.542;13.232;2023-02-19T11:38:48;61634.44;;;-142.07;100.00
62072;BME280;48031;48.542;13.232;2023-02-19T11:43:01;61634.44;;;-142.07;100.00
62072;BME280;48031;48.542;13.232;2023-02-19T11:47:36;61634.44;;;-142.07;100.00
62072;BME280;48031;48.542;13.232;2023-02-19T12:00:21;61634.44;;;-142.07;100.00
62072;BME280;48031;48.542;13.232;2023-02-19T12:08:40;61634.44;;;-142.07;100.00
62072;BME280;48031;48.542;13.232;2023-02-19T12:21:31;61634.44;;;-142.07;100.00
62072;BME280;48031;48.542;13.232;2023-02-19T12:25:52;61634.44;;;-142.07;100.00
62072;BME280;48031;48.542;13.232;2023-02-19T12:39:03;61634.44;;;-142.07;100.00
62072;BME280;48031;48.542;13.232;2023-02-19T12:43:34;61634.44;;;-142.07;100.00
62072;BME280;48031;48.542;13.232;2023-02-19T12:47:40;61634.44;;;-142.07;100.00
62072;BME280;48031;48.542;13.232;2023-02-19T12:51:46;61634.44;;;-142.07;100.00
62072;BME280;48031;48.542;13.232;2023-02-19T12:55:50;61634.44;;;-142.07;100.00
62072;BME280;48031;48.542;13.232;2023-02-19T13:00:26;61634.44;;;-142.07;100.00
62072;BME280;48031;48.542;13.232;2023-02-19T13:04:57;61634.44;;;-142.07;100.00
62072;BME280;48031;48.542;13.232;2023-02-19T13:09:06;61634.44;;;-142.07;100.00
62072;BME280;48031;48.542;13.232;2023-02-19T13:13:29;61634.44;;;-142.07;100.00
62072;BME280;48031;48.542;13.232;2023-02-19T13:17:45;61634.44;;;-142.07;100.00
62072;BME280;48031;48.542;13.232;2023-02-19T13:22:15;61634.44;;;-142.07;100.00
62072;BME280;48031;48.542;13.232;2023-02-19T13:40:05;61634.44;;;-142.07;100.00
62072;BME280;48031;48.542;13.232;2023-02-19T13:44:19;61634.44;;;-142.07;100.00
62072;BME280;48031;48.542;13.232;2023-02-19T14:00:50;61634.44;;;-142.07;100.00
62072;BME280;48031;48.542;13.232;2023-02-19T14:04:57;61634.44;;;-142.07;100.00
62072;BME280;48031;48.542;13.232;2023-02-19T14:09:00;61634.44;;;-142.07;100.00
62072;BME280;48031;48.542;13.232;2023-02-19T14:13:07;61634.44;;;-142.07;100.00
62072;BME280;48031;48.542;13.232;2023-02-19T14:21:37;61634.44;;;-142.07;100.00
62072;BME280;48031;48.542;13.232;2023-02-19T14:25:43;61634.44;;;-142.07;100.00
62072;BME280;48031;48.542;13.232;2023-02-19T14:29:46;61634.44;;;-142.07;100.00
62072;BME280;48031;48.542;13.232;2023-02-19T14:33:51;61634.44;;;-142.07;100.00
62072;BME280;48031;48.542;13.232;2023-02-19T14:37:54;61634.44;;;-142.07;100.00
62072;BME280;48031;48.542;13.232;2023-02-19T14:41:59;61634.44;;;-142.07;100.00
62072;BME280;48031;48.542;13.232;2023-02-19T14:46:07;61634.44;;;-142.07;100.00
62072;BME280;48031;48.542;13.232;2023-02-19T14:50:19;61634.44;;;-142.07;100.00
62072;BME280;48031;48.542;13.232;2023-02-19T14:54:36;61634.44;;;-142.07;100.00
62072;BME280;48031;48.542;13.232;2023-02-19T14:58:39;61634.44;;;-142.07;100.00
62072;BME280;48031;48.542;13.232;2023-02-19T15:02:42;61634.44;;;-142.07;100.00
62072;BME280;48031;48.542;13.232;2023-02-19T15:06:45;61634.44;;;-142.07;100.00
62072;BME280;48031;48.542;13.232;2023-02-19T15:10:46;61634.44;;;-142.07;100.00
62072;BME280;48031;48.542;13.232;2023-02-19T15:14:52;61634.44;;;-142.07;100.00
62072;BME280;48031;48.542;13.232;2023-02-19T15:18:56;61634.44;;;-142.07;100.00
62072;BME280;48031;48.542;13.232;2023-02-19T15:23:00;61634.44;;;-142.07;100.00
62072;BME280;48031;48.542;13.232;2023-02-19T15:27:02;61634.44;;;-142.07;100.00
62072;BME280;48031;48.542;13.232;2023-02-19T15:31:05;61634.44;;;-142.07;100.00
62072;BME280;48031;48.542;13.232;2023-02-19T15:35:17;61634.44;;;-142.07;100.00
62072;BME280;48031;48.542;13.232;2023-02-19T15:39:22;61634.44;;;-142.07;100.00
62072;BME280;48031;48.542;13.232;2023-02-19T15:43:40;61634.44;;;-142.07;100.00
62072;BME280;48031;48.542;13.232;2023-02-19T15:47:55;61634.44;;;-142.07;100.00
62072;BME280;48031;48.542;13.232;2023-02-19T15:52:05;61634.44;;;-142.07;100.00
62072;BME280;48031;48.542;13.232;2023-02-19T16:00:33;61634.44;;;-142.07;100.00
62072;BME280;48031;48.542;13.232;2023-02-19T16:04:37;61634.44;;;-142.07;100.00
62072;BME280;48031;48.542;13.232;2023-02-19T16:08:44;61634.44;;;-142.07;100.00
62072;BME280;48031;48.542;13.232;2023-02-19T16:13:01;61634.44;;;-142.07;100.00
62072;BME280;48031;48.542;13.232;2023-02-19T16:21:14;61634.44;;;-142.07;100.00
62072;BME280;48031;48.542;13.232;2023-02-19T16:25:31;61634.44;;;-142.07;100.00
62072;BME280;48031;48.542;13.232;2023-02-19T16:29:35;61634.44;;;-142.07;100.00
62072;BME280;48031;48.542;13.232;2023-02-19T16:33:38;61634.44;;;-142.07;100.00
62072;BME280;48031;48.542;13.232;2023-02-19T16:37:55;61634.44;;;-142.07;100.00
62072;BME280;48031;48.542;13.232;2023-02-19T16:46:00;61634.44;;;-142.07;100.00
62072;BME280;48031;48.542;13.232;2023-02-19T16:50:10;61634.44;;;-142.07;100.00
62072;BME280;48031;48.542;13.232;2023-02-19T16:54:13;61634.44;;;-142.07;100.00
62072;BME280;48031;48.542;13.232;2023-02-19T16:58:15;61634.44;;;-142.07;100.00
62072;BME280;48031;48.542;13.232;2023-02-19T17:02:20;61634.44;;;-142.07;100.00
62072;BME280;48031;48.542;13.232;2023-02-19T17:06:23;61634.44;;;-142.07;100.00
62072;BME280;48031;48.542;13.232;2023-02-19T17:10:26;61634.44;;;-142.07;100.00
62072;BME280;48031;48.542;13.232;2023-02-19T17:14:28;61634.44;;;-142.07;100.00
62072;BME280;48031;48.542;13.232;2023-02-19T17:18:30;61634.44;;;-142.07;100.00
62072;BME280;48031;48.542;13.232;2023-02-19T17:22:32;61634.44;;;-142.07;100.00
62072;BME280;48031;48.542;13.232;2023-02-19T17:26:34;61634.44;;;-142.07;100.00
62072;BME280;48031;48.542;13.232;2023-02-19T17:30:35;61634.44;;;-142.07;100.00
62072;BME280;48031;48.542;13.232;2023-02-19T17:34:40;61634.44;;;-142.07;100.00
62072;BME280;48031;48.542;13.232;2023-02-19T17:38:42;61634.44;;;-142.07;100.00
62072;BME280;48031;48.542;13.232;2023-02-19T17:42:44;61634.44;;;-142.07;100.00
62072;BME280;48031;48.542;13.232;2023-02-19T17:46:46;61634.44;;;-142.07;100.00
62072;BME280;48031;48.542;13.232;2023-02-19T17:50:48;61634.44;;;-142.07;100.00
62072;BME280;48031;48.542;13.232;2023-02-19T17:54:52;61634.44;;;-142.07;100.00
62072;BME280;48031;48.542;13.232;2023-02-19T17:58:55;61634.44;;;-142.07;100.00
62072;BME280;48031;48.542;13.232;2023-02-19T18:02:57;61634.44;;;-142.07;100.00
62072;BME280;48031;48.542;13.232;2023-02-19T18:06:59;61634.44;;;-142.07;100.00
62072;BME280;48031;48.542;13.232;2023-02-19T18:11:01;61634.44;;;-142.07;100.00
62072;BME280;48031;48.542;13.232;2023-02-19T18:15:04;61634.44;;;-142.07;100.00
62072;BME280;48031;48.542;13.232;2023-02-19T18:19:06;61634.44;;;-142.07;100.00
62072;BME280;48031;48.542;13.232;2023-02-19T18:23:07;61634.44;;;-142.07;100.00
62072;BME280;48031;48.542;13.232;2023-02-19T18:27:09;61634.44;;;-142.07;100.00
62072;BME280;48031;48.542;13.232;2023-02-19T18:31:11;61634.44;;;-142.07;100.00
62072;BME280;48031;48.542;13.232;2023-02-19T18:35:15;61634.44;;;-142.07;100.00
62072;BME280;48031;48.542;13.232;2023-02-19T18:39:17;61634.44;;;-142.07;100.00
62072;BME280;48031;48.542;13.232;2023-02-19T18:43:19;61634.44;;;-142.07;100.00
62072;BME280;48031;48.542;13.232;2023-02-19T18:47:22;61634.44;;;-142.07;100.00
62072;BME280;48031;48.542;13.232;2023-02-19T18:51:25;61634.44;;;-142.07;100.00
62072;BME280;48031;48.542;13.232;2023-02-19T18:55:27;61634.44;;;-142.07;100.00
62072;BME280;48031;48.542;13.232;2023-02-19T18:59:30;61634.44;;;-142.07;100.00
62072;BME280;48031;48.542;13.232;2023-02-19T19:03:32;61634.44;;;-142.07;100.00
62072;BME280;48031;48.542;13.232;2023-02-19T19:07:34;61634.44;;;-142.07;100.00
62072;BME280;48031;48.542;13.232;2023-02-19T19:11:36;61634.44;;;-142.07;100.00
62072;BME280;48031;48.542;13.232;2023-02-19T19:15:38;61634.44;;;-142.07;100.00
62072;BME280;48031;48.542;13.232;2023-02-19T19:19:42;61634.44;;;-142.07;100.00
62072;BME280;48031;48.542;13.232;2023-02-19T19:23:45;61634.44;;;-142.07;100.00
62072;BME280;48031;48.542;13.232;2023-02-19T19:27:47;61634.44;;;-142.07;100.00
62072;BME280;48031;48.542;13.232;2023-02-19T19:31:51;61634.44;;;-142.07;100.00
62072;BME280;48031;48.542;13.232;2023-02-19T19:35:53;61634.44;;;-142.07;100.00
62072;BME280;48031;48.542;13.232;2023-02-19T19:39:55;61634.44;;;-142.07;100.00
62072;BME280;48031;48.542;13.232;2023-02-19T19:43:57;61634.44;;;-142.07;100.00
62072;BME280;48031;48.542;13.232;2023-02-19T19:47:59;61634.44;;;-142.07;100.00
62072;BME280;48031;48.542;13.232;2023-02-19T19:52:00;61634.44;;;-142.07;100.00
62072;BME280;48031;48.542;13.232;2023-02-19T19:56:02;61634.44;;;-142.07;100.00
62072;BME280;48031;48.542;13.232;2023-02-19T20:00:05;61634.44;;;-142.07;100.00
62072;BME280;48031;48.542;13.232;2023-02-19T20:04:12;61634.44;;;-142.07;100.00
62072;BME280;48031;48.542;13.232;2023-02-19T20:08:15;61634.44;;;-142.07;100.00
62072;BME280;48031;48.542;13.232;2023-02-19T20:12:17;61634.44;;;-142.07;100.00
62072;BME280;48031;48.542;13.232;2023-02-19T20:16:26;61634.44;;;-142.07;100.00
62072;BME280;48031;48.542;13.232;2023-02-19T20:20:28;61634.44;;;-142.07;100.00
62072;BME280;48031;48.542;13.232;2023-02-19T20:24:30;61634.44;;;-142.07;100.00
62072;BME280;48031;48.542;13.232;2023-02-19T20:28:32;61634.44;;;-142.07;100.00
62072;BME280;48031;48.542;13.232;2023-02-19T20:32:34;61634.44;;;-142.07;100.00
62072;BME280;48031;48.542;13.232;2023-02-19T20:36:42;61634.44;;;-142.07;100.00
62072;BME280;48031;48.542;13.232;2023-02-19T20:40:44;61634.44;;;-142.07;100.00
62072;BME280;48031;48.542;13.232;2023-02-19T20:44:45;61634.44;;;-142.07;100.00
62072;BME280;48031;48.542;13.232;2023-02-19T20:48:48;61634.44;;;-142.07;100.00
62072;BME280;48031;48.542;13.232;2023-02-19T20:52:52;61634.44;;;-142.07;100.00
62072;BME280;48031;48.542;13.232;2023-02-19T20:56:57;61634.44;;;-142.07;100.00
62072;BME280;48031;48.542;13.232;2023-02-19T21:00:59;61634.44;;;-142.07;100.00
62072;BME280;48031;48.542;13.232;2023-02-19T21:05:01;61634.44;;;-142.07;100.00
62072;BME280;48031;48.542;13.232;2023-02-19T21:09:03;61634.44;;;-142.07;100.00
62072;BME280;48031;48.542;13.232;2023-02-19T21:13:06;61634.44;;;-142.07;100.00
62072;BME280;48031;48.542;13.232;2023-02-19T21:17:08;61634.44;;;-142.07;100.00
62072;BME280;48031;48.542;13.232;2023-02-19T21:21:10;61634.44;;;-142.07;100.00
62072;BME280;48031;48.542;13.232;2023-02-19T21:25:11;61634.44;;;-142.07;100.00
62072;BME280;48031;48.542;13.232;2023-02-19T21:29:18;61634.44;;;-142.07;100.00
62072;BME280;48031;48.542;13.232;2023-02-19T21:33:20;61634.44;;;-142.07;100.00
62072;BME280;48031;48.542;13.232;2023-02-19T21:37:22;61634.44;;;-142.07;100.00
62072;BME280;48031;48.542;13.232;2023-02-19T21:41:25;61634.44;;;-142.07;100.00
62072;BME280;48031;48.542;13.232;2023-02-19T21:45:26;61634.44;;;-142.07;100.00
62072;BME280;48031;48.542;13.232;2023-02-19T21:49:28;61634.44;;;-142.07;100.00
62072;BME280;48031;48.542;13.232;2023-02-19T21:53:30;61634.44;;;-142.07;100.00
62072;BME280;48031;48.542;13.232;2023-02-19T21:57:32;61634.44;;;-142.07;100.00
62072;BME280;48031;48.542;13.232;2023-02-19T22:01:36;61634.44;;;-142.07;100.00
62072;BME280;48031;48.542;13.232;2023-02-19T22:05:39;61634.44;;;-142.07;100.00
62072;BME280;48031;48.542;13.232;2023-02-19T22:09:41;61634.44;;;-142.07;100.00
62072;BME280;48031;48.542;13.232;2023-02-19T22:13:42;61634.44;;;-142.07;100.00
62072;BME280;48031;48.542;13.232;2023-02-19T22:17:44;61634.44;;;-142.07;100.00
62072;BME280;48031;48.542;13.232;2023-02-19T22:21:47;61634.44;;;-142.07;100.00
62072;BME280;48031;48.542;13.232;2023-02-19T22:25:49;61634.44;;;-142.07;100.00
62072;BME280;48031;48.542;13.232;2023-02-19T22:29:50;61634.44;;;-142.07;100.00
62072;BME280;48031;48.542;13.232;2023-02-19T22:33:54;61634.44;;;-142.07;100.00
62072;BME280;48031;48.542;13.232;2023-02-19T22:37:56;61634.44;;;-142.07;100.00
62072;BME280;48031;48.542;13.232;2023-02-19T22:41:58;61634.44;;;-142.07;100.00
62072;BME280;48031;48.542;13.232;2023-02-19T22:46:00;61634.44;;;-142.07;100.00
62072;BME280;48031;48.542;13.232;2023-02-19T22:50:02;61634.44;;;-142.07;100.00